Time;durP1;ratioP1;P1;durP2;ratioP2;P2;SDS_P1;SDS_P2;PMS_P1;PMS_P2;Temp;Humidity;BMP_temperature;BMP_pressure;BME280_temperature;BME280_humidity;BME280_pressure;Samples;Min_cycle;Max_cycle;Signal;HPM_P1;HPM_P2
2023/12/06 00:01:49;;;;;;;38.13;22.75;;;;;;;;;;5017380;27;100587;-62
2023/12/06 00:04:16;;;;;;;36.78;22.98;;;;;;;;;;5010400;27;98568;-62
2023/12/06 00:06:42;;;;;;;38.05;23.02;;;;;;;;;;5014592;28;99626;-62
2023/12/06 00:09:09;;;;;;;38.13;23.17;;;;;;;;;;5019431;27;98161;-62
2023/12/06 00:11:35;;;;;;;35.40;22.40;;;;;;;;;;5013265;27;99838;-62
2023/12/06 00:14:01;;;;;;;37.45;22.55;;;;;;;;;;5009783;28;100525;-62
2023/12/06 00:16:28;;;;;;;38.05;23.40;;;;;;;;;;5010379;28;99436;-62
2023/12/06 00:18:54;;;;;;;38.92;23.45;;;;;;;;;;5019895;27;101071;-62
2023/12/06 00:21:21;;;;;;;39.17;22.77;;;;;;;;;;5019343;27;99387;-62
2023/12/06 00:23:48;;;;;;;37.88;23.17;;;;;;;;;;5008351;28;98561;-62
2023/12/06 00:26:14;;;;;;;36.40;22.10;;;;;;;;;;5015159;27;100376;-62
2023/12/06 00:28:40;;;;;;;40.88;24.42;;;;;;;;;;5018414;28;100552;-62
2023/12/06 00:31:07;;;;;;;40.85;23.48;;;;;;;;;;5016918;27;99576;-62
2023/12/06 00:33:33;;;;;;;43.15;23.17;;;;;;;;;;5021914;28;101122;-62
2023/12/06 00:36:00;;;;;;;39.80;22.23;;;;;;;;;;5018288;27;98786;-62
2023/12/06 00:38:26;;;;;;;38.60;22.33;;;;;;;;;;5011408;28;100433;-62
2023/12/06 00:40:53;;;;;;;40.25;21.88;;;;;;;;;;5011572;27;100236;-62
2023/12/06 00:43:20;;;;;;;38.85;23.40;;;;;;;;;;5014296;28;98717;-62
2023/12/06 00:45:46;;;;;;;40.95;23.08;;;;;;;;;;5020036;27;100360;-62
2023/12/06 00:48:12;;;;;;;40.45;22.75;;;;;;;;;;5012903;28;100531;-62
2023/12/06 00:50:39;;;;;;;37.40;22.63;;;;;;;;;;5016940;28;99403;-62
2023/12/06 00:53:05;;;;;;;40.13;24.05;;;;;;;;;;5014340;27;99584;-62
2023/12/06 00:55:31;;;;;;;39.85;22.92;;;;;;;;;;5012840;28;98919;-62
2023/12/06 00:57:58;;;;;;;36.20;22.15;;;;;;;;;;5019201;27;100604;-62
2023/12/06 01:00:24;;;;;;;39.40;22.33;;;;;;;;;;5015966;28;100547;-62
2023/12/06 01:02:50;;;;;;;38.05;21.73;;;;;;;;;;5021544;28;98781;-62
2023/12/06 01:05:17;;;;;;;39.72;22.23;;;;;;;;;;5022052;27;101046;-62
2023/12/06 01:07:43;;;;;;;36.63;21.00;;;;;;;;;;5017543;27;99504;-62
2023/12/06 01:10:10;;;;;;;36.50;21.27;;;;;;;;;;5011267;28;98476;-62
2023/12/06 01:12:36;;;;;;;41.05;21.40;;;;;;;;;;5019028;27;98572;-62
2023/12/06 01:15:03;;;;;;;37.40;20.77;;;;;;;;;;5015486;28;99072;-62
2023/12/06 01:17:32;;;;;;;35.35;20.85;;;;;;;;;;5019239;27;99210;-62
2023/12/06 01:19:58;;;;;;;33.90;21.17;;;;;;;;;;5017872;27;99669;-62
2023/12/06 01:22:25;;;;;;;36.45;21.35;;;;;;;;;;5018359;28;98212;-62
2023/12/06 01:24:57;;;;;;;37.83;21.55;;;;;;;;;;5015255;27;99556;-62
2023/12/06 01:27:24;;;;;;;37.42;21.08;;;;;;;;;;5018626;28;99560;-63
2023/12/06 01:29:51;;;;;;;33.40;20.98;;;;;;;;;;5020701;27;99333;-62
2023/12/06 01:32:30;;;;;;;32.22;20.15;;;;;;;;;;5021665;28;100932;-62
2023/12/06 01:34:56;;;;;;;32.63;19.50;;;;;;;;;;5008723;28;100808;-62
2023/12/06 01:37:23;;;;;;;35.40;20.38;;;;;;;;;;5007826;28;100304;-61
2023/12/06 01:39:51;;;;;;;33.85;21.00;;;;;;;;;;5011628;27;99646;-62
2023/12/06 01:42:17;;;;;;;32.05;20.58;;;;;;;;;;5017948;28;98812;-62
2023/12/06 01:44:43;;;;;;;35.80;20.88;;;;;;;;;;5016578;27;100271;-62
2023/12/06 01:47:10;;;;;;;38.63;20.55;;;;;;;;;;5016313;27;98764;-59
2023/12/06 01:49:36;;;;;;;39.63;20.55;;;;;;;;;;5019211;28;98644;-61
2023/12/06 01:52:03;;;;;;;33.05;20.75;;;;;;;;;;5021771;27;99680;-61
2023/12/06 01:54:29;;;;;;;35.08;20.63;;;;;;;;;;5020946;28;100314;-61
2023/12/06 01:56:56;;;;;;;36.97;21.13;;;;;;;;;;5016145;28;100943;-61
2023/12/06 01:59:22;;;;;;;34.03;20.70;;;;;;;;;;5014366;27;100583;-61
2023/12/06 02:01:49;;;;;;;34.17;20.17;;;;;;;;;;5019836;27;98648;-62
2023/12/06 02:04:15;;;;;;;39.35;22.02;;;;;;;;;;5020524;28;100331;-61
2023/12/06 02:06:42;;;;;;;33.67;20.73;;;;;;;;;;5018577;28;99620;-61
2023/12/06 02:09:11;;;;;;;33.83;21.00;;;;;;;;;;5016134;28;98715;-61
2023/12/06 02:11:38;;;;;;;35.15;20.23;;;;;;;;;;5015037;27;100173;-61
2023/12/06 02:14:04;;;;;;;37.28;21.17;;;;;;;;;;5014840;28;99801;-61
2023/12/06 02:16:30;;;;;;;41.40;20.70;;;;;;;;;;5020634;27;98817;-61
2023/12/06 02:18:57;;;;;;;34.67;21.30;;;;;;;;;;5016564;27;100242;-61
2023/12/06 02:21:23;;;;;;;33.35;21.02;;;;;;;;;;5021409;27;98772;-61
2023/12/06 02:23:50;;;;;;;32.42;20.20;;;;;;;;;;5017757;28;99154;-61
2023/12/06 02:26:16;;;;;;;30.70;18.98;;;;;;;;;;5017126;28;99530;-59
2023/12/06 02:28:43;;;;;;;32.05;19.67;;;;;;;;;;5013693;28;98993;-61
2023/12/06 02:31:09;;;;;;;34.67;20.65;;;;;;;;;;5017602;28;100439;-62
2023/12/06 02:33:37;;;;;;;34.45;20.60;;;;;;;;;;5016227;28;100493;-61
2023/12/06 02:36:04;;;;;;;31.80;20.63;;;;;;;;;;5018722;28;97782;-61
2023/12/06 02:38:31;;;;;;;34.40;20.63;;;;;;;;;;5021491;28;98843;-61
2023/12/06 02:40:58;;;;;;;33.92;21.00;;;;;;;;;;5015395;27;98827;-61
2023/12/06 02:43:24;;;;;;;35.42;21.52;;;;;;;;;;5016838;27;100274;-61
2023/12/06 02:45:51;;;;;;;32.17;19.52;;;;;;;;;;5014161;27;99510;-61
2023/12/06 02:48:17;;;;;;;34.65;20.98;;;;;;;;;;5022175;28;98595;-61
2023/12/06 02:50:44;;;;;;;37.67;21.30;;;;;;;;;;5018427;28;100422;-61
2023/12/06 02:53:10;;;;;;;38.08;21.15;;;;;;;;;;5016024;28;100753;-61
2023/12/06 02:55:36;;;;;;;34.67;20.58;;;;;;;;;;5010728;27;100569;-62
2023/12/06 02:58:03;;;;;;;35.85;19.52;;;;;;;;;;5020310;27;99247;-62
2023/12/06 03:00:29;;;;;;;35.97;20.30;;;;;;;;;;5015241;28;98788;-62
2023/12/06 03:02:56;;;;;;;34.85;19.40;;;;;;;;;;5020724;28;99488;-62
2023/12/06 03:05:22;;;;;;;32.28;20.15;;;;;;;;;;5017694;27;99465;-62
2023/12/06 03:07:49;;;;;;;33.65;19.55;;;;;;;;;;5018954;27;99527;-62
2023/12/06 03:10:15;;;;;;;42.88;20.73;;;;;;;;;;5013456;27;100958;-62
2023/12/06 03:12:42;;;;;;;30.92;19.70;;;;;;;;;;5017261;28;100607;-62
2023/12/06 03:15:08;;;;;;;34.45;20.67;;;;;;;;;;5015078;27;98700;-62
2023/12/06 03:17:34;;;;;;;32.45;19.42;;;;;;;;;;5016002;27;100020;-62
2023/12/06 03:20:01;;;;;;;31.50;19.50;;;;;;;;;;5020393;27;100254;-62
2023/12/06 03:22:27;;;;;;;33.58;19.25;;;;;;;;;;5012761;28;98559;-62
2023/12/06 03:24:54;;;;;;;30.00;17.92;;;;;;;;;;5019404;28;99798;-62
2023/12/06 03:27:20;;;;;;;31.88;20.40;;;;;;;;;;5017805;27;98647;-62
2023/12/06 03:29:47;;;;;;;31.48;19.42;;;;;;;;;;5014409;28;99536;-62
2023/12/06 03:32:14;;;;;;;28.10;18.88;;;;;;;;;;5013706;28;101196;-62
2023/12/06 03:34:40;;;;;;;30.95;19.33;;;;;;;;;;5016657;28;98768;-63
2023/12/06 03:37:07;;;;;;;31.02;18.23;;;;;;;;;;5014382;28;100619;-62
2023/12/06 03:39:33;;;;;;;30.85;18.67;;;;;;;;;;5020035;27;99486;-62
2023/12/06 03:41:59;;;;;;;30.88;18.67;;;;;;;;;;5015809;28;98575;-62
2023/12/06 03:44:25;;;;;;;32.95;18.40;;;;;;;;;;5013471;28;99528;-62
2023/12/06 03:46:52;;;;;;;27.38;18.15;;;;;;;;;;5018071;28;98521;-62
2023/12/06 03:49:18;;;;;;;32.70;18.75;;;;;;;;;;5014555;27;99168;-62
2023/12/06 03:51:45;;;;;;;31.45;18.40;;;;;;;;;;5015624;27;99535;-62
2023/12/06 03:54:11;;;;;;;32.10;17.67;;;;;;;;;;5017447;27;98662;-62
2023/12/06 03:56:38;;;;;;;29.45;17.33;;;;;;;;;;5015302;27;100359;-62
2023/12/06 03:59:06;;;;;;;27.00;16.92;;;;;;;;;;5006982;27;100766;-62
2023/12/06 04:01:32;;;;;;;25.90;16.20;;;;;;;;;;5014955;28;98747;-62
2023/12/06 04:03:58;;;;;;;26.08;17.23;;;;;;;;;;5019485;27;99298;-62
2023/12/06 04:06:25;;;;;;;26.42;17.15;;;;;;;;;;5019664;28;99013;-62
2023/12/06 04:08:51;;;;;;;27.73;16.58;;;;;;;;;;5017028;27;100216;-62
2023/12/06 04:11:18;;;;;;;27.67;15.98;;;;;;;;;;5012166;27;99831;-62
2023/12/06 04:13:44;;;;;;;29.67;16.83;;;;;;;;;;5013311;28;97951;-62
2023/12/06 04:16:10;;;;;;;25.48;16.25;;;;;;;;;;5019901;27;98535;-62
2023/12/06 04:18:37;;;;;;;25.25;15.93;;;;;;;;;;5012450;28;99505;-62
2023/12/06 04:21:04;;;;;;;25.85;15.05;;;;;;;;;;5015488;28;99204;-62
2023/12/06 04:23:31;;;;;;;24.63;14.93;;;;;;;;;;5007606;28;99937;-62
2023/12/06 04:25:57;;;;;;;25.38;15.43;;;;;;;;;;5022749;28;100549;-62
2023/12/06 04:28:23;;;;;;;23.52;15.15;;;;;;;;;;5017034;27;99215;-62
2023/12/06 04:30:50;;;;;;;24.33;14.88;;;;;;;;;;5015120;28;99503;-62
2023/12/06 04:33:16;;;;;;;24.05;15.63;;;;;;;;;;5013716;28;98656;-62
2023/12/06 04:35:42;;;;;;;22.30;15.32;;;;;;;;;;5017266;27;99256;-62
2023/12/06 04:38:09;;;;;;;25.63;15.20;;;;;;;;;;5017613;27;99747;-62
2023/12/06 04:40:35;;;;;;;24.48;15.60;;;;;;;;;;5012032;28;98934;-62
2023/12/06 04:43:01;;;;;;;22.80;14.80;;;;;;;;;;5014402;27;100267;-62
2023/12/06 04:45:28;;;;;;;24.02;14.90;;;;;;;;;;5014421;27;100282;-62
2023/12/06 04:47:55;;;;;;;23.83;14.68;;;;;;;;;;5016444;28;98745;-62
2023/12/06 04:50:21;;;;;;;28.45;17.10;;;;;;;;;;5009138;28;99648;-62
2023/12/06 04:52:47;;;;;;;28.88;17.13;;;;;;;;;;5017035;27;100138;-62
2023/12/06 04:55:14;;;;;;;36.80;19.50;;;;;;;;;;5016961;28;100272;-62
2023/12/06 04:57:40;;;;;;;29.45;15.75;;;;;;;;;;5014369;28;100747;-62
2023/12/06 05:00:08;;;;;;;22.20;15.35;;;;;;;;;;5013071;27;98876;-62
2023/12/06 05:02:35;;;;;;;22.77;15.02;;;;;;;;;;5013849;28;99281;-62
2023/12/06 05:05:01;;;;;;;25.27;15.27;;;;;;;;;;5018029;27;99496;-62
2023/12/06 05:07:28;;;;;;;23.73;14.23;;;;;;;;;;5011746;27;101962;-62
2023/12/06 05:09:54;;;;;;;23.23;13.57;;;;;;;;;;5020135;28;99457;-62
2023/12/06 05:12:21;;;;;;;23.38;14.60;;;;;;;;;;5012895;27;98932;-62
2023/12/06 05:14:47;;;;;;;21.83;14.15;;;;;;;;;;5012353;28;100267;-62
2023/12/06 05:17:13;;;;;;;20.80;13.52;;;;;;;;;;5018274;27;100451;-61
2023/12/06 05:19:40;;;;;;;20.63;14.27;;;;;;;;;;5012874;28;98730;-59
2023/12/06 05:22:06;;;;;;;21.63;13.77;;;;;;;;;;5018887;27;99876;-61
2023/12/06 05:24:33;;;;;;;20.73;13.80;;;;;;;;;;5013912;28;100820;-61
2023/12/06 05:26:59;;;;;;;21.13;13.07;;;;;;;;;;5008570;28;98447;-61
2023/12/06 05:29:25;;;;;;;23.02;13.57;;;;;;;;;;5016506;28;98621;-61
2023/12/06 05:31:52;;;;;;;23.02;13.10;;;;;;;;;;5019225;28;99746;-61
2023/12/06 05:34:19;;;;;;;19.38;13.55;;;;;;;;;;5012657;28;99327;-61
2023/12/06 05:36:45;;;;;;;24.27;13.52;;;;;;;;;;5011289;28;99215;-61
2023/12/06 05:39:12;;;;;;;18.35;12.77;;;;;;;;;;5016346;27;98543;-61
2023/12/06 05:41:38;;;;;;;22.23;13.15;;;;;;;;;;5013319;28;99325;-61
2023/12/06 05:44:05;;;;;;;21.73;12.20;;;;;;;;;;5014740;27;100603;-61
2023/12/06 05:46:32;;;;;;;25.08;13.25;;;;;;;;;;5018008;28;98570;-61
2023/12/06 05:48:58;;;;;;;25.60;12.07;;;;;;;;;;5016650;28;100197;-61
2023/12/06 05:51:25;;;;;;;23.95;14.02;;;;;;;;;;5021134;28;98498;-61
2023/12/06 05:53:52;;;;;;;23.48;13.75;;;;;;;;;;5018466;28;99368;-61
2023/12/06 05:56:18;;;;;;;20.02;13.25;;;;;;;;;;5018232;27;99520;-61
2023/12/06 05:58:45;;;;;;;20.02;12.25;;;;;;;;;;5016047;27;100490;-61
2023/12/06 06:01:11;;;;;;;19.25;12.32;;;;;;;;;;5016151;27;99905;-61
2023/12/06 06:03:38;;;;;;;26.05;13.23;;;;;;;;;;5021374;27;100166;-61
2023/12/06 06:06:05;;;;;;;20.73;11.82;;;;;;;;;;5016970;27;98685;-61
2023/12/06 06:08:32;;;;;;;19.45;11.55;;;;;;;;;;5021483;28;99194;-61
2023/12/06 06:10:59;;;;;;;15.70;11.27;;;;;;;;;;5016543;27;99466;-61
2023/12/06 06:13:29;;;;;;;16.48;11.68;;;;;;;;;;5021026;27;98545;-61
2023/12/06 06:15:56;;;;;;;20.70;12.05;;;;;;;;;;5019774;28;98698;-61
2023/12/06 06:18:22;;;;;;;23.15;11.82;;;;;;;;;;5016473;27;98944;-61
2023/12/06 06:20:49;;;;;;;24.52;11.98;;;;;;;;;;5018149;28;100304;-61
2023/12/06 06:23:15;;;;;;;22.17;13.48;;;;;;;;;;5016908;28;100449;-61
2023/12/06 06:25:42;;;;;;;23.35;12.43;;;;;;;;;;5017688;28;98572;-61
2023/12/06 06:28:08;;;;;;;21.77;13.52;;;;;;;;;;5007805;28;99222;-62
2023/12/06 06:30:34;;;;;;;18.25;11.25;;;;;;;;;;5021215;28;100507;-62
2023/12/06 06:33:01;;;;;;;24.75;13.02;;;;;;;;;;5017925;28;100364;-63
2023/12/06 06:35:27;;;;;;;22.83;12.50;;;;;;;;;;5018977;27;99373;-62
2023/12/06 06:37:54;;;;;;;21.77;12.50;;;;;;;;;;5019958;28;98456;-62
2023/12/06 06:40:22;;;;;;;23.17;12.43;;;;;;;;;;5016953;27;99196;-62
2023/12/06 06:42:49;;;;;;;19.75;11.73;;;;;;;;;;5016656;27;99436;-62
2023/12/06 06:45:15;;;;;;;19.50;11.45;;;;;;;;;;5017538;28;98516;-62
2023/12/06 06:47:42;;;;;;;20.33;12.57;;;;;;;;;;5013904;27;100280;-62
2023/12/06 06:50:08;;;;;;;19.15;11.80;;;;;;;;;;5020604;27;100432;-62
2023/12/06 06:52:35;;;;;;;22.00;12.35;;;;;;;;;;5018315;27;98890;-62
2023/12/06 06:55:01;;;;;;;19.42;13.00;;;;;;;;;;5020920;28;99240;-61
2023/12/06 06:57:27;;;;;;;25.33;13.43;;;;;;;;;;5016255;27;99515;-62
2023/12/06 06:59:54;;;;;;;27.92;13.63;;;;;;;;;;5018943;28;99662;-62
2023/12/06 07:02:21;;;;;;;24.23;12.15;;;;;;;;;;5018916;27;99475;-62
2023/12/06 07:04:50;;;;;;;26.98;12.57;;;;;;;;;;5019993;28;98040;-62
2023/12/06 07:07:18;;;;;;;25.75;12.10;;;;;;;;;;5016166;27;98645;-62
2023/12/06 07:09:44;;;;;;;21.30;11.70;;;;;;;;;;5008779;28;100558;-62
2023/12/06 07:12:11;;;;;;;22.83;11.23;;;;;;;;;;5009393;28;99296;-62
2023/12/06 07:14:37;;;;;;;22.08;12.23;;;;;;;;;;5017662;28;100109;-62
2023/12/06 07:17:04;;;;;;;27.80;12.23;;;;;;;;;;5011789;28;99475;-62
2023/12/06 07:19:30;;;;;;;24.58;11.35;;;;;;;;;;5020284;28;98862;-62
2023/12/06 07:21:56;;;;;;;22.48;11.13;;;;;;;;;;5006251;28;99557;-62
2023/12/06 07:24:23;;;;;;;39.20;13.30;;;;;;;;;;5016100;28;98642;-62
2023/12/06 07:26:50;;;;;;;28.25;12.43;;;;;;;;;;5019599;27;100477;-62
2023/12/06 07:29:17;;;;;;;82.85;23.65;;;;;;;;;;5013388;28;98781;-62
2023/12/06 07:31:43;;;;;;;41.55;15.50;;;;;;;;;;5018482;28;98593;-62
2023/12/06 07:34:10;;;;;;;59.63;20.63;;;;;;;;;;5015385;27;99199;-62
2023/12/06 07:36:46;;;;;;;51.75;22.10;;;;;;;;;;5012521;28;100589;-62
2023/12/06 07:39:14;;;;;;;35.22;20.08;;;;;;;;;;5018158;28;99137;-62
2023/12/06 07:41:41;;;;;;;36.78;19.60;;;;;;;;;;5015162;28;99780;-62
2023/12/06 07:44:08;;;;;;;36.42;17.08;;;;;;;;;;5017384;28;98755;-62
2023/12/06 07:46:34;;;;;;;58.65;22.00;;;;;;;;;;5017960;27;99162;-62
2023/12/06 07:49:00;;;;;;;67.97;20.45;;;;;;;;;;5017870;28;100701;-64
2023/12/06 07:51:27;;;;;;;69.45;22.77;;;;;;;;;;5013819;27;98674;-63
2023/12/06 07:53:56;;;;;;;38.50;15.88;;;;;;;;;;5015614;27;99351;-64
2023/12/06 07:56:22;;;;;;;48.67;16.83;;;;;;;;;;5016878;27;99299;-63
2023/12/06 07:58:51;;;;;;;36.42;14.88;;;;;;;;;;5018914;27;98810;-63
2023/12/06 08:01:17;;;;;;;30.48;12.88;;;;;;;;;;5022703;27;100660;-63
2023/12/06 08:03:44;;;;;;;26.15;13.65;;;;;;;;;;5017266;27;98556;-62
2023/12/06 08:06:12;;;;;;;37.78;15.10;;;;;;;;;;5019677;28;99363;-62
2023/12/06 08:08:39;;;;;;;64.85;20.45;;;;;;;;;;5015992;27;99476;-63
2023/12/06 08:11:05;;;;;;;56.47;19.75;;;;;;;;;;5017741;27;98883;-63
2023/12/06 08:13:31;;;;;;;68.28;21.42;;;;;;;;;;5016966;27;98578;-63
2023/12/06 08:15:57;;;;;;;36.15;14.98;;;;;;;;;;5016252;28;100789;-63
2023/12/06 08:18:24;;;;;;;31.20;14.15;;;;;;;;;;5016278;27;98051;-62
2023/12/06 08:20:51;;;;;;;38.92;16.80;;;;;;;;;;5015162;28;98720;-63
2023/12/06 08:23:17;;;;;;;27.88;14.38;;;;;;;;;;5011391;28;100615;-63
2023/12/06 08:25:43;;;;;;;26.48;13.68;;;;;;;;;;5017366;28;100512;-63
2023/12/06 08:28:10;;;;;;;35.97;13.45;;;;;;;;;;5013519;28;99485;-63
2023/12/06 08:30:36;;;;;;;24.63;14.00;;;;;;;;;;5017465;27;98914;-63
2023/12/06 08:33:03;;;;;;;22.92;12.27;;;;;;;;;;5017292;28;99221;-60
2023/12/06 08:35:29;;;;;;;33.00;14.23;;;;;;;;;;5016300;28;99756;-63
2023/12/06 08:37:56;;;;;;;23.02;12.77;;;;;;;;;;5016976;28;98655;-63
2023/12/06 08:40:26;;;;;;;23.70;11.52;;;;;;;;;;5015256;27;99319;-63
2023/12/06 08:42:52;;;;;;;24.60;10.35;;;;;;;;;;5015325;27;98772;-63
2023/12/06 08:45:19;;;;;;;21.48;12.40;;;;;;;;;;5022481;27;99045;-63
2023/12/06 08:47:45;;;;;;;26.92;12.65;;;;;;;;;;5015955;28;101071;-63
2023/12/06 08:50:14;;;;;;;23.45;13.57;;;;;;;;;;5014761;27;99328;-63
2023/12/06 08:52:44;;;;;;;24.17;14.38;;;;;;;;;;5017388;27;99874;-63
2023/12/06 08:55:11;;;;;;;24.10;15.48;;;;;;;;;;5010936;28;101072;-63
2023/12/06 08:57:37;;;;;;;27.20;15.52;;;;;;;;;;5015648;28;99975;-64
2023/12/06 09:00:07;;;;;;;24.47;13.93;;;;;;;;;;5014490;28;99181;-63
2023/12/06 09:02:34;;;;;;;23.70;12.93;;;;;;;;;;5016338;28;100160;-63
2023/12/06 09:05:00;;;;;;;31.45;13.63;;;;;;;;;;5017442;27;98668;-63
2023/12/06 09:07:27;;;;;;;18.75;13.43;;;;;;;;;;5022292;28;99256;-63
2023/12/06 09:09:54;;;;;;;27.30;14.43;;;;;;;;;;5019225;28;98784;-63
2023/12/06 09:12:21;;;;;;;25.10;12.70;;;;;;;;;;5019975;28;98860;-63
2023/12/06 09:14:47;;;;;;;20.38;10.75;;;;;;;;;;5011643;28;101258;-62
2023/12/06 09:17:13;;;;;;;24.92;11.73;;;;;;;;;;5017637;28;99194;-63
2023/12/06 09:19:40;;;;;;;16.30;10.00;;;;;;;;;;5016144;27;99411;-65
2023/12/06 09:22:07;;;;;;;17.50;10.35;;;;;;;;;;5019192;27;100533;-63
2023/12/06 09:24:34;;;;;;;25.13;11.23;;;;;;;;;;5015529;27;98613;-63
2023/12/06 09:27:00;;;;;;;16.85;8.80;;;;;;;;;;5019871;28;99211;-63
2023/12/06 09:29:26;;;;;;;20.27;9.00;;;;;;;;;;5024807;27;99669;-63
2023/12/06 09:31:53;;;;;;;16.52;9.15;;;;;;;;;;5021876;28;100304;-64
2023/12/06 09:34:19;;;;;;;16.30;9.35;;;;;;;;;;5017580;28;100809;-64
2023/12/06 09:37:02;;;;;;;20.48;9.32;;;;;;;;;;5019637;28;98781;-64
2023/12/06 09:39:29;;;;;;;17.08;9.30;;;;;;;;;;5021854;28;99241;-64
2023/12/06 09:41:55;;;;;;;23.92;9.13;;;;;;;;;;5020510;27;99872;-64
2023/12/06 09:44:21;;;;;;;18.67;8.43;;;;;;;;;;5020472;27;98561;-64
2023/12/06 09:46:50;;;;;;;25.27;8.00;;;;;;;;;;5014914;28;99161;-64
2023/12/06 09:49:16;;;;;;;18.58;9.13;;;;;;;;;;5021901;27;99826;-63
2023/12/06 09:51:43;;;;;;;17.05;9.02;;;;;;;;;;5026010;28;98863;-62
2023/12/06 09:54:10;;;;;;;17.55;8.23;;;;;;;;;;5014473;28;99536;-63
2023/12/06 09:56:36;;;;;;;17.20;8.13;;;;;;;;;;5018792;27;98605;-61
2023/12/06 09:59:03;;;;;;;15.70;8.68;;;;;;;;;;5017621;28;101053;-62
2023/12/06 10:01:29;;;;;;;14.02;7.82;;;;;;;;;;5018566;28;100690;-64
2023/12/06 10:03:56;;;;;;;15.85;7.68;;;;;;;;;;5021934;28;99623;-64
2023/12/06 10:06:22;;;;;;;11.32;6.70;;;;;;;;;;5019015;28;100068;-64
2023/12/06 10:08:53;;;;;;;11.75;7.35;;;;;;;;;;5020038;27;99607;-64
2023/12/06 10:11:20;;;;;;;;;;;;;;;;;;5022155;28;98546;-63
2023/12/06 10:13:46;;;;;;;13.57;6.53;;;;;;;;;;5019161;27;129989;-62
2023/12/06 10:16:17;;;;;;;12.80;6.82;;;;;;;;;;5019089;28;98836;-64
2023/12/06 10:18:46;;;;;;;13.05;6.32;;;;;;;;;;5021944;28;99156;-65
2023/12/06 10:21:13;;;;;;;10.02;6.28;;;;;;;;;;5015403;28;99750;-64
2023/12/06 10:23:40;;;;;;;18.90;7.20;;;;;;;;;;5020765;28;98868;-63
2023/12/06 10:26:07;;;;;;;13.73;6.95;;;;;;;;;;5014986;28;99219;-63
2023/12/06 10:28:35;;;;;;;10.82;6.40;;;;;;;;;;5019588;28;101120;-65
2023/12/06 10:31:02;;;;;;;14.43;7.03;;;;;;;;;;5017524;28;98944;-64
2023/12/06 10:33:29;;;;;;;11.20;6.90;;;;;;;;;;5016199;28;98717;-65
2023/12/06 10:36:02;;;;;;;13.02;6.55;;;;;;;;;;5022208;27;98852;-64
2023/12/06 10:38:29;;;;;;;15.38;7.00;;;;;;;;;;5018743;28;99163;-65
2023/12/06 10:40:58;;;;;;;15.07;7.78;;;;;;;;;;5022102;27;99437;-66
2023/12/06 10:43:28;;;;;;;14.85;6.63;;;;;;;;;;5019305;28;98887;-65
2023/12/06 10:45:55;;;;;;;20.02;6.85;;;;;;;;;;5007991;28;99588;-64
2023/12/06 10:48:22;;;;;;;10.55;6.68;;;;;;;;;;5010104;28;99704;-65
2023/12/06 10:50:49;;;;;;;13.88;7.22;;;;;;;;;;5016748;27;98699;-65
2023/12/06 10:53:17;;;;;;;21.45;7.78;;;;;;;;;;5019632;28;100191;-64
2023/12/06 10:55:44;;;;;;;16.42;7.63;;;;;;;;;;5020988;28;99356;-65
2023/12/06 10:58:11;;;;;;;14.13;7.43;;;;;;;;;;5019282;28;100226;-65
2023/12/06 11:00:38;;;;;;;17.15;6.95;;;;;;;;;;5014418;28;99334;-64
2023/12/06 11:03:04;;;;;;;16.58;8.10;;;;;;;;;;5017068;27;98663;-65
2023/12/06 11:05:37;;;;;;;15.20;7.60;;;;;;;;;;5018311;28;100162;-66
2023/12/06 11:08:22;;;;;;;17.77;7.60;;;;;;;;;;5016971;28;99497;-66
2023/12/06 11:11:04;;;;;;;12.32;7.45;;;;;;;;;;5018557;28;97879;-66
2023/12/06 11:13:51;;;;;;;13.30;7.40;;;;;;;;;;5016123;28;98879;-64
2023/12/06 11:16:33;;;;;;;17.80;7.78;;;;;;;;;;5020821;28;99571;-65
2023/12/06 11:18:59;;;;;;;17.33;7.67;;;;;;;;;;5017993;28;99400;-65
2023/12/06 11:21:27;;;;;;;13.00;7.15;;;;;;;;;;5017520;28;99273;-68
2023/12/06 11:23:54;;;;;;;14.55;7.40;;;;;;;;;;5008347;28;99945;-64
2023/12/06 11:26:21;;;;;;;18.15;8.18;;;;;;;;;;5017507;27;98500;-63
2023/12/06 11:28:47;;;;;;;12.88;7.72;;;;;;;;;;5017202;28;101064;-63
2023/12/06 11:31:15;;;;;;;17.83;7.47;;;;;;;;;;5018381;28;98692;-61
2023/12/06 11:33:52;;;;;;;20.95;7.82;;;;;;;;;;5018486;28;99144;-64
2023/12/06 11:36:18;;;;;;;18.13;7.18;;;;;;;;;;5018802;27;99094;-64
2023/12/06 11:38:44;;;;;;;14.93;7.00;;;;;;;;;;5018238;28;98914;-64
2023/12/06 11:41:14;;;;;;;17.63;6.78;;;;;;;;;;5015972;28;99185;-64
2023/12/06 11:43:45;;;;;;;19.48;6.75;;;;;;;;;;5019063;28;99765;-63
2023/12/06 11:46:13;;;;;;;15.20;6.70;;;;;;;;;;5017644;28;100931;-64
2023/12/06 11:48:40;;;;;;;15.27;7.00;;;;;;;;;;5017968;28;100432;-63
2023/12/06 11:51:07;;;;;;;18.10;6.93;;;;;;;;;;5016986;28;98613;-63
2023/12/06 11:53:39;;;;;;;17.13;7.30;;;;;;;;;;5013181;28;99169;-63
2023/12/06 11:56:06;;;;;;;16.23;7.60;;;;;;;;;;5016905;27;99603;-63
2023/12/06 11:58:36;;;;;;;14.57;7.20;;;;;;;;;;5015626;28;99069;-64
2023/12/06 12:01:03;;;;;;;14.15;6.40;;;;;;;;;;5020813;28;99265;-62
2023/12/06 12:03:30;;;;;;;14.82;7.00;;;;;;;;;;5016738;27;98597;-63
2023/12/06 12:05:57;;;;;;;12.77;6.65;;;;;;;;;;5018565;27;99430;-63
2023/12/06 12:08:24;;;;;;;19.60;7.00;;;;;;;;;;5006453;28;100228;-64
2023/12/06 12:10:50;;;;;;;13.80;6.57;;;;;;;;;;5015913;28;98708;-63
2023/12/06 12:13:20;;;;;;;17.63;6.68;;;;;;;;;;5017291;27;99242;-63
2023/12/06 12:15:54;;;;;;;16.38;6.95;;;;;;;;;;5016795;28;99548;-63
2023/12/06 12:18:21;;;;;;;13.88;6.82;;;;;;;;;;5018216;28;98616;-61
2023/12/06 12:20:48;;;;;;;13.85;7.00;;;;;;;;;;5012600;28;100251;-62
2023/12/06 12:23:14;;;;;;;28.75;6.65;;;;;;;;;;5021912;28;100482;-61
2023/12/06 12:25:48;;;;;;;11.60;6.13;;;;;;;;;;5014464;27;99224;-60
2023/12/06 12:28:15;;;;;;;15.52;6.70;;;;;;;;;;5013592;28;99665;-61
2023/12/06 12:30:41;;;;;;;15.88;6.65;;;;;;;;;;5016075;28;98939;-60
2023/12/06 12:33:08;;;;;;;15.93;6.53;;;;;;;;;;5019151;27;99219;-60
2023/12/06 12:35:35;;;;;;;17.65;5.85;;;;;;;;;;5013805;28;99545;-60
2023/12/06 12:38:01;;;;;;;11.02;6.10;;;;;;;;;;5017496;28;98477;-60
2023/12/06 12:40:28;;;;;;;12.98;5.45;;;;;;;;;;5015461;28;100342;-60
2023/12/06 12:42:55;;;;;;;12.07;6.13;;;;;;;;;;5014432;28;100656;-63
2023/12/06 12:45:21;;;;;;;15.55;5.75;;;;;;;;;;5015380;28;98571;-62
2023/12/06 12:47:47;;;;;;;16.33;5.85;;;;;;;;;;5019270;28;99645;-62
2023/12/06 12:50:21;;;;;;;12.30;5.88;;;;;;;;;;5013370;27;98170;-62
2023/12/06 12:52:49;;;;;;;10.88;5.85;;;;;;;;;;5016599;28;98772;-62
2023/12/06 12:55:16;;;;;;;14.73;6.13;;;;;;;;;;5015786;27;100492;-62
2023/12/06 12:57:44;;;;;;;12.80;5.82;;;;;;;;;;5020013;28;99737;-61
2023/12/06 13:00:16;;;;;;;15.27;6.10;;;;;;;;;;5016219;28;99905;-61
2023/12/06 13:02:42;;;;;;;8.95;5.75;;;;;;;;;;5019560;27;99535;-61
2023/12/06 13:05:09;;;;;;;13.82;6.28;;;;;;;;;;5009432;28;98945;-61
2023/12/06 13:07:36;;;;;;;11.38;6.35;;;;;;;;;;5021983;28;100123;-61
2023/12/06 13:10:05;;;;;;;14.85;6.07;;;;;;;;;;5025077;27;98525;-61
2023/12/06 13:12:31;;;;;;;17.88;6.15;;;;;;;;;;5016676;28;100340;-61
2023/12/06 13:14:57;;;;;;;15.18;6.63;;;;;;;;;;5019293;27;98849;-60
2023/12/06 13:17:25;;;;;;;11.55;5.78;;;;;;;;;;5019390;28;99790;-62
2023/12/06 13:19:51;;;;;;;10.55;6.72;;;;;;;;;;5020535;27;99254;-61
2023/12/06 13:22:18;;;;;;;13.95;6.10;;;;;;;;;;5018641;27;100380;-61
2023/12/06 13:24:47;;;;;;;16.70;5.53;;;;;;;;;;5017942;28;98878;-61
2023/12/06 13:27:14;;;;;;;16.48;5.80;;;;;;;;;;5019088;28;99119;-65
2023/12/06 13:29:41;;;;;;;10.20;6.07;;;;;;;;;;5025519;27;99496;-62
2023/12/06 13:32:07;;;;;;;10.88;5.78;;;;;;;;;;5018694;28;99295;-64
2023/12/06 13:34:34;;;;;;;10.20;5.50;;;;;;;;;;5017765;28;99392;-64
2023/12/06 13:37:00;;;;;;;11.48;5.43;;;;;;;;;;5004537;28;98537;-63
2023/12/06 13:39:27;;;;;;;8.95;5.82;;;;;;;;;;5022768;28;99175;-64
2023/12/06 13:41:54;;;;;;;8.20;5.43;;;;;;;;;;5013994;27;99470;-63
2023/12/06 13:44:21;;;;;;;8.15;5.13;;;;;;;;;;5020964;28;98613;-64
2023/12/06 13:46:47;;;;;;;7.65;5.20;;;;;;;;;;5016719;27;100360;-64
2023/12/06 13:49:14;;;;;;;10.32;4.80;;;;;;;;;;5021833;28;100669;-65
2023/12/06 13:51:41;;;;;;;8.55;5.40;;;;;;;;;;5023692;28;98828;-63
2023/12/06 13:54:07;;;;;;;17.88;5.82;;;;;;;;;;5011567;28;99469;-62
2023/12/06 13:56:33;;;;;;;17.65;7.60;;;;;;;;;;5019302;27;98521;-64
2023/12/06 13:59:00;;;;;;;10.00;5.75;;;;;;;;;;5010979;28;99149;-61
2023/12/06 14:01:26;;;;;;;12.25;5.63;;;;;;;;;;5021800;28;99421;-61
2023/12/06 14:03:55;;;;;;;10.95;5.15;;;;;;;;;;5018942;27;98005;-62
2023/12/06 14:06:23;;;;;;;7.38;4.70;;;;;;;;;;5020094;28;98749;-62
2023/12/06 14:08:50;;;;;;;13.68;5.75;;;;;;;;;;5013789;28;99438;-61
2023/12/06 14:11:17;;;;;;;17.08;5.68;;;;;;;;;;5025827;28;99222;-60
2023/12/06 14:13:43;;;;;;;10.93;5.38;;;;;;;;;;5018145;27;99485;-61
2023/12/06 14:16:10;;;;;;;14.75;5.85;;;;;;;;;;5017555;28;98769;-62
2023/12/06 14:18:36;;;;;;;10.05;5.22;;;;;;;;;;5005932;27;100653;-63